Time;durP1;ratioP1;P1;durP2;ratioP2;P2;SDS_P1;SDS_P2;PMS_P1;PMS_P2;Temp;Humidity;BMP_temperature;BMP_pressure;BME280_temperature;BME280_humidity;BME280_pressure;Samples;Min_cycle;Max_cycle;Signal;HPM_P1;HPM_P2
2022/03/28 00:01:08;;;;;;;6.25;3.88;;;;;;;11.07;nan;102550.00;5022361;28;20040;-46
2022/03/28 00:03:33;;;;;;;5.57;2.90;;;;;;;11.02;nan;102549.81;5023767;28;20029;-47
2022/03/28 00:05:59;;;;;;;5.50;3.17;;;;;;;10.96;nan;102549.84;5023139;28;20071;-46
2022/03/28 00:08:24;;;;;;;7.28;3.42;;;;;;;10.91;nan;102539.69;5027731;28;20033;-47
2022/03/28 00:10:50;;;;;;;7.30;3.40;;;;;;;10.84;nan;102545.06;5020912;28;20034;-48
2022/03/28 00:13:15;;;;;;;6.55;3.17;;;;;;;10.79;nan;102536.00;5020633;28;20029;-47
2022/03/28 00:15:41;;;;;;;10.48;4.13;;;;;;;10.75;nan;102542.78;5024139;28;20021;-46
2022/03/28 00:18:08;;;;;;;4.60;2.97;;;;;;;10.65;nan;102534.34;5025098;28;20021;-46
2022/03/28 00:20:34;;;;;;;6.07;3.38;;;;;;;10.58;nan;102528.94;5022278;28;20426;-46
2022/03/28 00:23:00;;;;;;;5.97;3.88;;;;;;;10.47;nan;102526.91;5027986;28;20021;-47
2022/03/28 00:25:25;;;;;;;7.80;3.60;;;;;;;10.40;nan;102524.19;5024214;28;20804;-47
2022/03/28 00:27:51;;;;;;;6.85;3.55;;;;;;;10.38;nan;102528.91;5027514;28;20016;-46
2022/03/28 00:30:16;;;;;;;8.98;3.40;;;;;;;10.33;nan;102523.34;5019437;28;20664;-47
2022/03/28 00:32:42;;;;;;;5.22;3.30;;;;;;;10.28;nan;102521.28;5024271;28;20029;-46
2022/03/28 00:35:08;;;;;;;9.85;3.80;;;;;;;10.21;nan;102516.94;5026818;28;20083;-46
2022/03/28 00:37:35;;;;;;;11.05;4.30;;;;;;;10.15;nan;102513.19;5025543;28;20489;-46
2022/03/28 00:40:01;;;;;;;11.73;3.42;;;;;;;10.11;nan;102517.31;5021571;28;20124;-47
2022/03/28 00:42:26;;;;;;;7.15;3.42;;;;;;;10.06;nan;102516.25;5026627;28;20071;-47
2022/03/28 00:44:52;;;;;;;9.93;4.22;;;;;;;10.02;nan;102506.97;5025332;28;20021;-47
2022/03/28 00:47:17;;;;;;;9.13;4.47;;;;;;;9.92;nan;102508.19;5029379;28;20464;-47
2022/03/28 00:49:43;;;;;;;8.38;3.88;;;;;;;9.87;nan;102510.63;5027699;28;20029;-47
2022/03/28 00:52:09;;;;;;;6.72;4.10;;;;;;;9.84;nan;102496.81;5026430;28;20574;-47
2022/03/28 00:54:34;;;;;;;8.73;3.90;;;;;;;9.82;nan;102493.50;5026146;28;20104;-47
2022/03/28 00:57:01;;;;;;;11.98;4.72;;;;;;;9.82;nan;102488.97;5029008;28;20033;-47
2022/03/28 00:59:27;;;;;;;6.82;3.60;;;;;;;9.82;nan;102483.63;5021737;28;20550;-47
2022/03/28 01:01:52;;;;;;;10.18;4.68;;;;;;;9.80;nan;102477.66;5023944;28;20407;-47
2022/03/28 01:04:18;;;;;;;9.27;4.38;;;;;;;9.80;nan;102482.19;5023476;28;20048;-50
2022/03/28 01:06:43;;;;;;;10.68;4.28;;;;;;;9.77;nan;102471.88;5027168;28;20034;-46
2022/03/28 01:09:09;;;;;;;8.05;4.05;;;;;;;9.76;nan;102472.91;5024679;28;20663;-47
2022/03/28 01:11:34;;;;;;;8.70;4.78;;;;;;;9.74;nan;102465.06;5025610;28;20022;-47
2022/03/28 01:14:01;;;;;;;10.02;3.95;;;;;;;9.73;nan;102459.94;5022345;28;20041;-46
2022/03/28 01:16:30;;;;;;;13.35;5.03;;;;;;;9.68;nan;102445.28;5026701;28;20337;-46
2022/03/28 01:18:56;;;;;;;10.55;4.80;;;;;;;9.68;nan;102442.59;5024685;28;20379;-47
2022/03/28 01:21:21;;;;;;;11.20;4.82;;;;;;;9.66;nan;102439.28;5024890;28;20032;-47
2022/03/28 01:23:47;;;;;;;12.68;4.95;;;;;;;9.64;nan;102444.03;5020459;28;20433;-46
2022/03/28 01:26:15;;;;;;;13.50;4.30;;;;;;;9.60;nan;102444.63;5027228;28;20045;-46
2022/03/28 01:28:41;;;;;;;10.63;4.30;;;;;;;9.58;nan;102444.84;5027325;28;20124;-46
2022/03/28 01:31:07;;;;;;;9.85;5.00;;;;;;;9.56;nan;102435.38;5027172;28;20779;-46
2022/03/28 01:33:35;;;;;;;14.30;4.72;;;;;;;9.53;nan;102435.78;5019075;28;20025;-46
2022/03/28 01:36:00;;;;;;;9.13;4.13;;;;;;;9.49;nan;102443.34;5019561;28;20033;-47
2022/03/28 01:38:26;;;;;;;10.18;4.13;;;;;;;9.48;nan;102432.84;5022944;28;20281;-46
2022/03/28 01:40:52;;;;;;;11.48;4.03;;;;;;;9.47;nan;102436.53;5026731;28;20025;-47
2022/03/28 01:43:19;;;;;;;12.88;3.72;;;;;;;9.42;nan;102437.16;5025993;28;20570;-47
2022/03/28 01:45:45;;;;;;;14.23;4.63;;;;;;;9.39;nan;102430.34;5023206;28;20030;-47
2022/03/28 01:48:11;;;;;;;9.75;4.05;;;;;;;9.38;nan;102434.06;5026508;28;20115;-47
2022/03/28 01:50:37;;;;;;;11.98;4.60;;;;;;;9.36;nan;102425.41;5025476;28;20025;-46
2022/03/28 01:53:04;;;;;;;11.00;4.43;;;;;;;9.34;nan;102414.09;5023176;28;20041;-46
2022/03/28 01:55:30;;;;;;;12.02;3.90;;;;;;;9.31;nan;102414.44;5022590;28;20112;-47
2022/03/28 01:57:56;;;;;;;9.90;4.22;;;;;;;9.26;nan;102414.22;5023385;28;20192;-47
2022/03/28 02:00:28;;;;;;;14.40;4.25;;;;;;;9.26;nan;102411.56;5020019;28;20060;-47
2022/03/28 02:02:54;;;;;;;13.68;4.70;;;;;;;9.22;nan;102404.97;5024116;28;20035;-47
2022/03/28 02:05:20;;;;;;;13.13;4.40;;;;;;;9.20;nan;102408.88;5025705;28;20025;-47
2022/03/28 02:07:49;;;;;;;7.57;4.45;;;;;;;9.17;nan;102407.41;5022672;28;20030;-47
2022/03/28 02:10:17;;;;;;;10.68;4.25;;;;;;;9.14;nan;102405.13;5025838;28;20037;-46
2022/03/28 02:12:43;;;;;;;14.30;3.95;;;;;;;9.12;nan;102401.00;5018509;28;20033;-47
2022/03/28 02:15:10;;;;;;;14.30;4.72;;;;;;;9.11;nan;102400.16;5019926;28;20117;-47
2022/03/28 02:17:36;;;;;;;12.60;4.60;;;;;;;9.06;nan;102389.25;5018985;28;20029;-47
2022/03/28 02:20:05;;;;;;;11.98;4.32;;;;;;;9.03;nan;102398.50;5022584;28;20022;-46
2022/03/28 02:22:32;;;;;;;9.57;4.25;;;;;;;8.98;nan;102394.78;5025711;28;20532;-47
2022/03/28 02:24:57;;;;;;;13.15;4.15;;;;;;;8.97;nan;102387.75;5021850;28;20029;-47
2022/03/28 02:27:23;;;;;;;9.95;4.68;;;;;;;8.97;nan;102385.06;5023283;28;20396;-47
2022/03/28 02:29:48;;;;;;;9.75;4.68;;;;;;;8.94;nan;102385.47;5026173;28;20084;-47
2022/03/28 02:32:14;;;;;;;10.30;4.40;;;;;;;8.92;nan;102383.00;5021532;28;20029;-46
2022/03/28 02:34:40;;;;;;;9.73;4.25;;;;;;;8.89;nan;102382.56;5022321;28;20029;-47
2022/03/28 02:37:06;;;;;;;12.43;4.93;;;;;;;8.88;nan;102386.25;5023122;28;20506;-47
2022/03/28 02:39:31;;;;;;;12.45;5.15;;;;;;;8.85;nan;102375.97;5022173;28;20021;-49
2022/03/28 02:41:57;;;;;;;15.77;4.95;;;;;;;8.82;nan;102377.19;5025383;28;20259;-47
2022/03/28 02:44:22;;;;;;;12.98;4.63;;;;;;;8.79;nan;102375.72;5025278;28;20083;-47
2022/03/28 02:46:48;;;;;;;13.65;4.90;;;;;;;8.77;nan;102369.75;5023170;28;20064;-47
2022/03/28 02:49:14;;;;;;;13.45;4.72;;;;;;;8.76;nan;102365.41;5031748;28;20115;-47
2022/03/28 02:51:39;;;;;;;14.82;4.78;;;;;;;8.75;nan;102371.78;5020219;28;20040;-47
2022/03/28 02:54:05;;;;;;;10.15;4.30;;;;;;;8.73;nan;102370.34;5023351;28;20017;-48
2022/03/28 02:56:30;;;;;;;11.00;5.22;;;;;;;8.71;nan;102361.69;5025707;28;20124;-47
2022/03/28 02:58:56;;;;;;;9.00;4.60;;;;;;;8.69;nan;102369.91;5024824;28;20061;-47
2022/03/28 03:01:22;;;;;;;12.82;5.38;;;;;;;8.67;nan;102363.94;5026503;28;20487;-47
2022/03/28 03:03:48;;;;;;;9.43;4.63;;;;;;;8.63;nan;102354.69;5021848;28;20033;-47
2022/03/28 03:06:13;;;;;;;11.40;5.00;;;;;;;8.59;nan;102357.91;5024760;28;20264;-47
2022/03/28 03:08:39;;;;;;;10.30;4.38;;;;;;;8.51;nan;102353.56;5024943;28;20168;-47
2022/03/28 03:11:04;;;;;;;12.50;4.93;;;;;;;8.47;nan;102358.47;5021692;28;20029;-47
2022/03/28 03:13:30;;;;;;;8.18;4.28;;;;;;;8.46;nan;102358.66;5021963;28;20486;-47
2022/03/28 03:15:55;;;;;;;10.07;4.88;;;;;;;8.45;nan;102354.34;5025056;28;20025;-46
2022/03/28 03:18:21;;;;;;;11.48;5.40;;;;;;;8.44;nan;102360.72;5021119;28;20479;-47
2022/03/28 03:20:46;;;;;;;15.57;4.90;;;;;;;8.41;nan;102369.09;5019356;28;20041;-47
2022/03/28 03:23:12;;;;;;;10.32;4.57;;;;;;;8.40;nan;102364.75;5021618;28;20053;-47
2022/03/28 03:25:38;;;;;;;10.80;4.25;;;;;;;8.37;nan;102373.16;5020425;28;20034;-47
2022/03/28 03:28:03;;;;;;;7.70;3.80;;;;;;;8.33;nan;102366.53;5026177;28;20503;-47
2022/03/28 03:30:29;;;;;;;8.25;3.88;;;;;;;8.29;nan;102370.63;5025721;28;20037;-47
2022/03/28 03:32:55;;;;;;;8.45;4.28;;;;;;;8.23;nan;102358.84;5026730;28;20026;-46
2022/03/28 03:35:21;;;;;;;9.52;3.85;;;;;;;8.17;nan;102363.13;5026076;28;20029;-48
2022/03/28 03:37:46;;;;;;;6.97;3.50;;;;;;;8.13;nan;102361.03;5029248;28;20033;-47
2022/03/28 03:40:12;;;;;;;10.40;3.65;;;;;;;8.10;nan;102364.91;5025325;28;20029;-47
2022/03/28 03:42:39;;;;;;;10.40;4.35;;;;;;;8.07;nan;102365.28;5024914;28;20541;-47
2022/03/28 03:45:05;;;;;;;8.30;4.65;;;;;;;8.06;nan;102360.97;5026541;28;20461;-47
2022/03/28 03:47:31;;;;;;;9.48;3.80;;;;;;;8.04;nan;102364.84;5027458;28;20041;-46
2022/03/28 03:49:57;;;;;;;8.80;3.88;;;;;;;7.97;nan;102361.31;5027736;28;20540;-46
2022/03/28 03:52:23;;;;;;;10.82;3.90;;;;;;;7.93;nan;102363.53;5028519;28;20041;-47
2022/03/28 03:54:48;;;;;;;13.13;4.03;;;;;;;7.84;nan;102357.47;5018851;28;20423;-47
2022/03/28 03:57:14;;;;;;;9.00;4.50;;;;;;;7.77;nan;102355.78;5029087;28;20526;-47
2022/03/28 03:59:40;;;;;;;12.52;4.20;;;;;;;7.72;nan;102353.69;5022236;28;20102;-47
2022/03/28 04:02:05;;;;;;;9.55;3.78;;;;;;;7.70;nan;102353.03;5037424;22;20034;-48
2022/03/28 04:04:31;;;;;;;8.15;3.90;;;;;;;7.67;nan;102339.25;5025928;28;20087;-45
2022/03/28 04:06:57;;;;;;;10.70;4.18;;;;;;;7.61;nan;102342.69;5026185;28;20434;-46
2022/03/28 04:09:22;;;;;;;11.95;4.47;;;;;;;7.56;nan;102338.75;5024028;28;20103;-45
2022/03/28 04:11:48;;;;;;;8.18;3.60;;;;;;;7.52;nan;102334.78;5021271;28;20160;-45
2022/03/28 04:14:14;;;;;;;11.13;4.50;;;;;;;7.47;nan;102331.84;5021330;28;20033;-45
2022/03/28 04:16:40;;;;;;;10.88;4.07;;;;;;;7.46;nan;102330.22;5018737;28;20573;-45
2022/03/28 04:19:05;;;;;;;15.05;5.07;;;;;;;7.43;nan;102327.94;5023361;28;20040;-46
2022/03/28 04:21:31;;;;;;;11.38;4.53;;;;;;;7.40;nan;102336.31;5025655;28;20041;-44
2022/03/28 04:23:57;;;;;;;15.35;5.07;;;;;;;7.38;nan;102329.50;5026230;28;20167;-45
2022/03/28 04:26:22;;;;;;;9.43;4.78;;;;;;;7.34;nan;102337.03;5022182;28;20037;-45
2022/03/28 04:28:48;;;;;;;10.05;4.57;;;;;;;7.33;nan;102330.06;5025061;28;20082;-45
2022/03/28 04:31:13;;;;;;;10.43;4.60;;;;;;;7.31;nan;102337.41;5029205;28;20025;-45
2022/03/28 04:33:39;;;;;;;10.52;5.22;;;;;;;7.27;nan;102336.16;5026925;28;20036;-45
2022/03/28 04:36:04;;;;;;;10.02;4.47;;;;;;;7.24;nan;102333.88;5024547;28;20403;-45
2022/03/28 04:38:30;;;;;;;11.13;4.53;;;;;;;7.23;nan;102329.53;5025230;28;20032;-46
2022/03/28 04:40:56;;;;;;;10.57;4.95;;;;;;;7.21;nan;102324.41;5020231;28;20041;-45
2022/03/28 04:43:22;;;;;;;15.88;5.97;;;;;;;7.21;nan;102328.91;5030241;28;20055;-47
2022/03/28 04:45:48;;;;;;;12.82;4.93;;;;;;;7.19;nan;102322.94;5029291;28;20415;-46
2022/03/28 04:48:13;;;;;;;11.02;5.00;;;;;;;7.14;nan;102317.31;5027973;28;20025;-46
2022/03/28 04:50:39;;;;;;;13.70;5.55;;;;;;;7.09;nan;102317.06;5026601;28;20080;-46
2022/03/28 04:53:05;;;;;;;13.82;5.53;;;;;;;7.09;nan;102314.41;5025876;28;20075;-46
2022/03/28 04:55:30;;;;;;;11.85;5.43;;;;;;;7.09;nan;102315.22;5025332;28;20280;-49
2022/03/28 04:57:56;;;;;;;12.77;5.45;;;;;;;7.07;nan;102313.75;5023399;28;20556;-48
2022/03/28 05:00:22;;;;;;;10.32;5.47;;;;;;;7.06;nan;102306.78;5021313;28;20483;-47
2022/03/28 05:02:47;;;;;;;20.23;6.53;;;;;;;7.06;nan;102306.78;5021024;28;20084;-49
2022/03/28 05:05:13;;;;;;;16.80;6.70;;;;;;;7.06;nan;102301.44;5019574;28;20022;-47
2022/03/28 05:07:39;;;;;;;17.50;6.75;;;;;;;7.06;nan;102307.59;5023345;28;20068;-46
2022/03/28 05:10:06;;;;;;;18.95;6.07;;;;;;;7.03;nan;102315.16;5019994;28;20018;-49
2022/03/28 05:12:33;;;;;;;13.70;6.32;;;;;;;7.00;nan;102319.00;5022728;28;20509;-47
2022/03/28 05:14:58;;;;;;;17.67;6.88;;;;;;;6.94;nan;102311.75;5022473;28;20037;-46
2022/03/28 05:17:26;;;;;;;21.65;8.20;;;;;;;6.91;nan;102310.28;5022597;28;20356;-51
2022/03/28 05:19:53;;;;;;;18.77;8.02;;;;;;;6.90;nan;102313.97;5027747;28;20590;-48
2022/03/28 05:22:19;;;;;;;18.95;7.10;;;;;;;6.92;nan;102308.44;5024067;28;20049;-48
2022/03/28 05:24:46;;;;;;;18.52;7.90;;;;;;;6.92;nan;102311.94;5024639;28;20486;-49
2022/03/28 05:27:11;;;;;;;17.17;7.30;;;;;;;6.93;nan;102310.94;5024389;28;20494;-46
2022/03/28 05:29:37;;;;;;;15.77;6.70;;;;;;;6.92;nan;102311.94;5024601;28;20027;-46
2022/03/28 05:32:04;;;;;;;15.93;7.55;;;;;;;6.93;nan;102302.94;5026894;28;20584;-48
2022/03/28 05:34:30;;;;;;;18.20;7.65;;;;;;;6.96;nan;102305.22;5027413;28;20547;-47
2022/03/28 05:37:00;;;;;;;16.92;8.50;;;;;;;6.97;nan;102309.53;5026370;28;20462;-46
2022/03/28 05:39:27;;;;;;;22.02;8.40;;;;;;;7.02;nan;102306.34;5025404;28;20463;-47
2022/03/28 05:41:54;;;;;;;18.20;7.45;;;;;;;7.04;nan;102304.31;5025902;28;20716;-48
2022/03/28 05:44:20;;;;;;;17.63;7.40;;;;;;;7.04;nan;102308.81;5027683;28;20021;-48
2022/03/28 05:46:48;;;;;;;16.42;7.60;;;;;;;7.05;nan;102303.28;5027128;28;20096;-49
2022/03/28 05:49:16;;;;;;;17.52;8.00;;;;;;;7.10;nan;102303.56;5026331;28;20079;-48
2022/03/28 05:51:42;;;;;;;21.45;8.43;;;;;;;7.10;nan;102300.06;5025832;28;20234;-49
2022/03/28 05:54:07;;;;;;;16.10;7.78;;;;;;;7.13;nan;102297.00;5023293;28;20056;-48
2022/03/28 05:56:33;;;;;;;18.80;8.75;;;;;;;7.15;nan;102294.97;5028287;28;20037;-47
2022/03/28 05:58:58;;;;;;;20.08;8.55;;;;;;;7.12;nan;102296.19;5026166;28;20025;-48
2022/03/28 06:01:25;;;;;;;14.60;9.05;;;;;;;7.14;nan;102291.50;5025633;28;20108;-46
2022/03/28 06:03:50;;;;;;;18.15;9.10;;;;;;;7.16;nan;102296.63;5022832;28;20034;-47
2022/03/28 06:06:16;;;;;;;21.52;8.77;;;;;;;7.19;nan;102290.94;5025198;28;20034;-47
2022/03/28 06:08:41;;;;;;;21.00;8.90;;;;;;;7.21;nan;102288.91;5025552;28;20025;-48
2022/03/28 06:11:07;;;;;;;17.40;8.65;;;;;;;7.19;nan;102285.63;5027159;28;20501;-49
2022/03/28 06:13:33;;;;;;;16.45;8.93;;;;;;;7.20;nan;102288.09;5026078;28;20017;-46
2022/03/28 06:15:59;;;;;;;18.33;7.35;;;;;;;7.20;nan;102292.59;5025600;28;20060;-47
2022/03/28 06:18:26;;;;;;;19.70;7.90;;;;;;;7.23;nan;102298.38;5023951;28;20088;-47
2022/03/28 06:20:52;;;;;;;18.75;7.28;;;;;;;7.28;nan;102300.47;5027778;28;20039;-46
2022/03/28 06:23:17;;;;;;;16.17;7.15;;;;;;;7.27;nan;102298.81;5025984;28;20037;-49
2022/03/28 06:25:43;;;;;;;15.10;7.10;;;;;;;7.24;nan;102300.03;5028804;28;20557;-47
2022/03/28 06:28:10;;;;;;;15.65;7.60;;;;;;;7.26;nan;102307.84;5023209;28;20043;-49
2022/03/28 06:30:36;;;;;;;12.68;7.00;;;;;;;7.26;nan;102300.66;5024362;28;20042;-48
2022/03/28 06:33:02;;;;;;;13.98;6.65;;;;;;;7.24;nan;102293.88;5025477;28;20021;-47
2022/03/28 06:35:28;;;;;;;15.48;6.32;;;;;;;7.21;nan;102295.09;5019933;28;20506;-47
2022/03/28 06:37:54;;;;;;;11.70;6.32;;;;;;;7.22;nan;102290.56;5025762;28;20352;-46
2022/03/28 06:40:20;;;;;;;14.25;7.50;;;;;;;7.23;nan;102284.22;5024861;28;20084;-47
2022/03/28 06:42:46;;;;;;;20.88;7.95;;;;;;;7.18;nan;102287.47;5025712;28;20029;-48
2022/03/28 06:45:13;;;;;;;16.20;8.68;;;;;;;7.19;nan;102286.44;5024250;28;20102;-50
2022/03/28 06:47:39;;;;;;;16.25;7.60;;;;;;;7.21;nan;102286.25;5026527;28;20064;-48
2022/03/28 06:50:06;;;;;;;13.52;7.88;;;;;;;7.23;nan;102282.38;5026281;28;20107;-47
2022/03/28 06:52:32;;;;;;;13.55;6.53;;;;;;;7.29;nan;102280.78;5028406;28;20033;-48
2022/03/28 06:54:58;;;;;;;13.77;7.55;;;;;;;7.33;nan;102276.72;5026038;28;20490;-48
2022/03/28 06:57:24;;;;;;;17.45;8.10;;;;;;;7.36;nan;102271.03;5020949;28;20029;-46
2022/03/28 06:59:49;;;;;;;12.52;6.88;;;;;;;7.32;nan;102272.41;5021978;28;20535;-50
2022/03/28 07:02:15;;;;;;;11.57;6.57;;;;;;;7.32;nan;102269.75;5031831;28;20033;-46
2022/03/28 07:04:41;;;;;;;11.48;7.05;;;;;;;7.37;nan;102272.69;5028125;28;20128;-51
2022/03/28 07:07:08;;;;;;;11.15;6.70;;;;;;;7.42;nan;102272.94;5029711;28;20029;-48
2022/03/28 07:09:34;;;;;;;12.57;6.70;;;;;;;7.40;nan;102258.97;5032134;28;20028;-47
2022/03/28 07:12:00;;;;;;;12.68;6.47;;;;;;;7.41;nan;102263.28;5030160;28;20044;-46
2022/03/28 07:14:26;;;;;;;12.95;6.75;;;;;;;7.41;nan;102271.28;5026881;28;20032;-49
2022/03/28 07:16:52;;;;;;;14.27;6.88;;;;;;;7.43;nan;102277.25;5029183;28;20074;-48
2022/03/28 07:19:18;;;;;;;11.70;6.32;;;;;;;7.42;nan;102275.59;5028060;28;20040;-47
2022/03/28 07:21:44;;;;;;;11.02;5.55;;;;;;;7.42;nan;102272.94;5025523;28;20064;-49
2022/03/28 07:24:10;;;;;;;15.40;5.72;;;;;;;7.43;nan;102266.59;5030124;28;20029;-48
2022/03/28 07:26:36;;;;;;;9.10;5.78;;;;;;;7.46;nan;102260.88;5026514;28;20021;-49
2022/03/28 07:29:03;;;;;;;8.20;5.68;;;;;;;7.50;nan;102251.47;5027595;28;20029;-50
2022/03/28 07:31:29;;;;;;;11.93;5.93;;;;;;;7.57;nan;102241.69;5029941;28;20070;-48
2022/03/28 07:34:29;;;;;;;8.50;5.20;;;;;;;7.64;nan;102244.41;5029865;28;20080;-49
2022/03/28 07:36:43;;;;;;;8.35;5.00;;;;;;;7.70;nan;102245.47;5027060;28;20025;-47
2022/03/28 07:39:09;;;;;;;7.78;4.85;;;;;;;7.78;nan;102248.03;5027848;28;20032;-50
2022/03/28 07:41:35;;;;;;;10.27;5.30;;;;;;;7.83;nan;102250.94;5029272;28;20039;-46
2022/03/28 07:44:00;;;;;;;10.55;5.38;;;;;;;7.86;nan;102239.88;5034065;28;20104;-48
2022/03/28 07:46:26;;;;;;;8.95;5.05;;;;;;;7.89;nan;102234.13;5024396;28;20056;-48
2022/03/28 07:48:51;;;;;;;9.75;5.82;;;;;;;7.95;nan;102227.22;5027523;28;20112;-50
2022/03/28 07:51:17;;;;;;;9.13;5.55;;;;;;;8.02;nan;102234.25;5027838;28;20498;-47
2022/03/28 07:53:42;;;;;;;9.35;5.55;;;;;;;8.08;nan;102230.81;5029192;28;20029;-49
2022/03/28 07:56:08;;;;;;;7.35;5.60;;;;;;;8.15;nan;102228.19;5025025;28;20025;-49
2022/03/28 07:58:34;;;;;;;10.93;5.55;;;;;;;8.18;nan;102228.59;5028041;28;20355;-48
2022/03/28 08:00:59;;;;;;;10.68;5.15;;;;;;;8.21;nan;102223.88;5026260;28;20107;-46
2022/03/28 08:03:25;;;;;;;9.20;5.70;;;;;;;8.31;nan;102229.72;5030259;28;20040;-49
2022/03/28 08:05:53;;;;;;;10.02;5.28;;;;;;;8.46;nan;102225.94;5025290;28;20036;-50
2022/03/28 08:08:19;;;;;;;7.85;5.18;;;;;;;8.62;nan;102222.09;5030176;28;20052;-51
2022/03/28 08:10:45;;;;;;;8.90;5.28;;;;;;;8.70;nan;102223.78;5027252;28;20251;-51
2022/03/28 08:13:10;;;;;;;10.25;5.25;;;;;;;8.81;nan;102220.53;5028471;28;20037;-46
2022/03/28 08:15:36;;;;;;;6.97;4.90;;;;;;;8.93;nan;102215.41;5022386;28;20017;-49
2022/03/28 08:18:02;;;;;;;11.43;5.65;;;;;;;8.95;nan;102216.84;5027279;28;20497;-50
2022/03/28 08:20:28;;;;;;;7.30;5.60;;;;;;;8.99;nan;102214.63;5026836;28;20666;-50
2022/03/28 08:22:54;;;;;;;7.00;5.75;;;;;;;9.09;nan;102209.69;5030798;28;20025;-46
2022/03/28 08:25:21;;;;;;;7.28;5.50;;;;;;;9.16;nan;102215.91;5024620;28;20390;-51
2022/03/28 08:27:48;;;;;;;8.15;5.55;;;;;;;9.13;nan;102212.78;5028020;28;20052;-48
2022/03/28 08:30:14;;;;;;;8.88;5.50;;;;;;;9.17;nan;102212.19;5028366;28;20125;-49
2022/03/28 08:32:41;;;;;;;7.30;4.70;;;;;;;9.35;nan;102207.09;5030126;28;20045;-46
2022/03/28 08:35:07;;;;;;;7.03;5.18;;;;;;;9.55;nan;102208.94;5028933;28;20025;-46
2022/03/28 08:37:33;;;;;;;6.68;5.00;;;;;;;9.72;nan;102198.66;5026851;28;20031;-48
2022/03/28 08:39:59;;;;;;;9.57;5.78;;;;;;;9.85;nan;102188.72;5025341;28;20037;-49
2022/03/28 08:42:26;;;;;;;8.60;5.82;;;;;;;9.95;nan;102182.97;5029401;28;20036;-49
2022/03/28 08:44:52;;;;;;;8.55;4.97;;;;;;;10.07;nan;102183.16;5026873;28;20174;-49
2022/03/28 08:47:20;;;;;;;9.95;6.15;;;;;;;10.23;nan;102170.19;5026407;28;20189;-46
2022/03/28 08:49:50;;;;;;;13.02;7.60;;;;;;;10.37;nan;102175.47;5027857;28;20022;-51
2022/03/28 08:52:16;;;;;;;12.48;8.07;;;;;;;10.47;nan;102175.84;5026679;28;20029;-48
2022/03/28 08:54:42;;;;;;;14.18;9.32;;;;;;;10.57;nan;102173.53;5024276;28;20036;-46
2022/03/28 08:57:08;;;;;;;14.73;9.00;;;;;;;10.75;nan;102180.84;5028345;28;20029;-50
2022/03/28 08:59:33;;;;;;;13.95;8.27;;;;;;;10.87;nan;102176.47;5024331;28;20024;-50
2022/03/28 09:01:59;;;;;;;13.00;7.50;;;;;;;10.97;nan;102174.16;5025079;28;20021;-46
2022/03/28 09:04:25;;;;;;;10.02;6.30;;;;;;;11.03;nan;102177.81;5025479;28;20033;-48
2022/03/28 09:06:50;;;;;;;9.05;6.03;;;;;;;11.10;nan;102171.38;5024715;28;20509;-52
2022/03/28 09:09:34;;;;;;;8.00;5.40;;;;;;;11.17;nan;102166.78;5022928;28;20110;-47
2022/03/28 09:12:08;;;;;;;7.75;5.13;;;;;;;11.22;nan;102165.31;5026560;28;20501;-50
2022/03/28 09:14:36;;;;;;;9.65;6.00;;;;;;;11.38;nan;102160.22;5023415;28;20025;-50
2022/03/28 09:17:15;;;;;;;10.82;6.60;;;;;;;11.54;nan;102150.81;5027301;28;20040;-47
2022/03/28 09:19:43;;;;;;;9.00;5.50;;;;;;;11.68;nan;102152.34;5025921;28;20048;-50
2022/03/28 09:22:14;;;;;;;12.20;5.80;;;;;;;11.77;nan;102150.19;5024006;28;20025;-52
2022/03/28 09:24:41;;;;;;;7.30;5.30;;;;;;;11.87;nan;102141.66;5023093;28;20025;-49
2022/03/28 09:27:28;;;;;;;7.40;5.07;;;;;;;11.97;nan;102139.25;5025211;28;20086;-49
2022/03/28 09:29:56;;;;;;;7.50;5.57;;;;;;;12.08;nan;102142.03;5022663;28;20136;-49
2022/03/28 09:32:24;;;;;;;9.32;5.22;;;;;;;12.17;nan;102128.28;5019452;28;20124;-47
2022/03/28 09:35:12;;;;;;;6.35;4.40;;;;;;;12.25;nan;102125.31;5022347;28;20045;-51
2022/03/28 09:37:50;;;;;;;6.15;4.70;;;;;;;12.42;nan;102122.81;5024314;28;20029;-50
2022/03/28 09:40:37;;;;;;;6.88;5.22;;;;;;;12.53;nan;102124.72;5019711;28;20116;-49
2022/03/28 09:43:21;;;;;;;8.23;4.60;;;;;;;12.61;nan;102116.38;5022534;28;20029;-50
2022/03/28 09:45:53;;;;;;;5.57;3.85;;;;;;;12.76;nan;102119.47;5020781;28;20390;-52
2022/03/28 09:48:19;;;;;;;6.90;4.55;;;;;;;12.91;nan;102114.44;5026599;28;20029;-49
2022/03/28 09:51:01;;;;;;;5.95;4.55;;;;;;;12.97;nan;102112.72;5021789;28;20050;-51
2022/03/28 09:53:31;;;;;;;6.93;4.32;;;;;;;13.07;nan;102104.06;5023645;28;20026;-50
2022/03/28 09:55:57;;;;;;;4.20;3.63;;;;;;;13.13;nan;102105.84;5022279;28;20402;-49
2022/03/28 09:58:46;;;;;;;7.30;4.07;;;;;;;13.17;nan;102113.22;5020192;28;20021;-48
2022/03/28 10:01:35;;;;;;;6.20;3.80;;;;;;;13.31;nan;102111.19;5024655;28;20111;-46
2022/03/28 10:04:05;;;;;;;5.72;4.22;;;;;;;13.52;nan;102097.13;5025944;28;20312;-46
2022/03/28 10:06:35;;;;;;;8.02;3.50;;;;;;;13.53;nan;102093.38;5023693;28;20029;-49
2022/03/28 10:09:02;;;;;;;11.32;4.20;;;;;;;13.59;nan;102089.75;5018751;28;20454;-51
2022/03/28 10:11:28;;;;;;;7.03;4.00;;;;;;;13.70;nan;102084.59;5019346;28;20033;-50
2022/03/28 10:13:55;;;;;;;7.38;4.32;;;;;;;13.75;nan;102082.00;5016456;28;20032;-51
2022/03/28 10:16:21;;;;;;;6.40;4.15;;;;;;;13.78;nan;102073.44;5021287;28;20115;-51
2022/03/28 10:18:52;;;;;;;6.30;4.05;;;;;;;13.81;nan;102075.66;5024254;28;20305;-49
2022/03/28 10:21:27;;;;;;;4.93;3.63;;;;;;;13.84;nan;102070.63;5022162;28;20037;-48
2022/03/28 10:23:55;;;;;;;;;;;;;;;13.86;nan;102062.31;5025623;28;20021;-50
2022/03/28 10:26:27;;;;;;;5.70;3.75;;;;;;;14.12;nan;102055.56;5027476;28;19912;-51
2022/03/28 10:29:01;;;;;;;6.97;3.75;;;;;;;14.29;nan;102052.91;5020356;28;20036;-51
2022/03/28 10:31:27;;;;;;;5.10;4.07;;;;;;;14.48;nan;102049.78;5024704;28;20277;-47
2022/03/28 10:33:54;;;;;;;6.10;4.07;;;;;;;14.58;nan;102038.38;5021741;28;20032;-49
2022/03/28 10:36:31;;;;;;;7.90;4.07;;;;;;;14.64;nan;102032.00;5022844;28;20503;-51
2022/03/28 10:39:41;;;;;;;4.88;3.92;;;;;;;14.70;nan;102036.41;5022484;28;20474;-47
2022/03/28 10:42:23;;;;;;;6.82;3.63;;;;;;;14.76;nan;102026.56;5024261;28;20065;-48
2022/03/28 10:45:02;;;;;;;6.90;4.15;;;;;;;14.82;nan;102023.69;5024124;28;20040;-51
2022/03/28 10:47:39;;;;;;;5.68;4.25;;;;;;;14.90;nan;102013.53;5022084;28;20032;-49
2022/03/28 10:50:07;;;;;;;8.85;3.90;;;;;;;14.93;nan;102015.75;5026422;28;20060;-49
2022/03/28 10:52:34;;;;;;;6.63;3.92;;;;;;;14.93;nan;102013.88;5026147;28;20032;-48
2022/03/28 10:55:07;;;;;;;5.55;3.78;;;;;;;15.03;nan;102005.91;5020974;28;20375;-51
2022/03/28 10:57:34;;;;;;;4.07;3.50;;;;;;;15.16;nan;101996.66;5021870;28;20040;-51
2022/03/28 11:00:06;;;;;;;6.22;3.58;;;;;;;15.15;nan;101989.63;5023533;28;20049;-47
2022/03/28 11:02:32;;;;;;;5.03;3.83;;;;;;;15.18;nan;101989.13;5021206;28;20195;-47
2022/03/28 11:05:12;;;;;;;4.38;3.63;;;;;;;15.14;nan;101971.81;5017551;28;20700;-50
2022/03/28 11:07:38;;;;;;;5.10;3.63;;;;;;;15.29;nan;101969.31;5023264;28;20487;-50
2022/03/28 11:10:10;;;;;;;6.03;3.08;;;;;;;15.39;nan;101965.91;5022285;28;20120;-52
2022/03/28 11:12:42;;;;;;;7.43;3.67;;;;;;;15.41;nan;101955.69;5024971;28;20037;-49
2022/03/28 11:15:16;;;;;;;6.45;3.33;;;;;;;15.39;nan;101947.84;5013563;28;20207;-49
2022/03/28 11:17:57;;;;;;;5.00;2.90;;;;;;;15.49;nan;101946.34;5025494;28;20391;-49
2022/03/28 11:20:24;;;;;;;6.18;3.05;;;;;;;15.71;nan;101956.09;5021373;28;20025;-50
2022/03/28 11:23:06;;;;;;;3.40;2.30;;;;;;;15.82;nan;101943.53;5021416;28;20244;-50
2022/03/28 11:25:38;;;;;;;4.50;3.08;;;;;;;15.88;nan;101939.78;5022913;28;20485;-51
2022/03/28 11:28:24;;;;;;;4.10;2.88;;;;;;;16.07;nan;101942.13;5021796;28;20148;-50
2022/03/28 11:31:11;;;;;;;3.65;2.53;;;;;;;16.10;nan;101947.03;5024352;28;20034;-50
2022/03/28 11:33:47;;;;;;;6.45;2.65;;;;;;;16.15;nan;101938.97;5024616;28;20068;-52
2022/03/28 11:36:20;;;;;;;4.25;2.95;;;;;;;16.20;nan;101942.53;5022929;28;20031;-49
2022/03/28 11:38:59;;;;;;;4.70;2.70;;;;;;;16.33;nan;101927.75;5020112;28;20124;-51
2022/03/28 11:41:25;;;;;;;3.13;2.35;;;;;;;16.45;nan;101925.72;5024620;28;20175;-50
2022/03/28 11:43:57;;;;;;;3.53;2.33;;;;;;;16.66;nan;101917.75;5025296;28;20025;-52
2022/03/28 11:46:30;;;;;;;4.82;2.42;;;;;;;16.88;nan;101921.19;5022229;28;20481;-51